createdAt,value
2023-02-22T00:02:44.484Z,40.55
2023-02-22T00:05:52.990Z,39.85
2023-02-22T00:08:59.339Z,37.05
2023-02-22T00:12:03.325Z,39.22
2023-02-22T00:15:12.702Z,37.17
2023-02-22T00:18:18.738Z,39.63
2023-02-22T00:21:26.507Z,35.00
2023-02-22T00:24:30.821Z,40.15
2023-02-22T00:27:36.993Z,37.22
2023-02-22T00:30:43.080Z,39.13
2023-02-22T00:33:49.308Z,41.85
2023-02-22T00:36:56.379Z,40.83
2023-02-22T00:40:07.082Z,42.00
2023-02-22T00:43:11.039Z,42.45
2023-02-22T00:46:17.088Z,43.75
2023-02-22T00:52:30.725Z,34.13
2023-02-22T00:55:37.198Z,43.03
2023-02-22T00:58:44.013Z,46.55
2023-02-22T01:01:47.897Z,35.05
2023-02-22T01:04:53.714Z,43.75
2023-02-22T01:08:01.896Z,41.22
2023-02-22T01:11:07.743Z,38.25
2023-02-22T01:14:11.642Z,43.88
2023-02-22T01:17:17.583Z,48.20
2023-02-22T01:20:25.091Z,41.20
2023-02-22T01:23:33.057Z,39.55
2023-02-22T01:26:37.327Z,41.22
2023-02-22T01:29:43.162Z,41.97
2023-02-22T01:32:47.163Z,46.55
2023-02-22T01:35:55.352Z,40.50
2023-02-22T01:39:01.230Z,42.35
2023-02-22T01:42:09.123Z,41.08
2023-02-22T01:45:43.853Z,41.95
2023-02-22T01:48:53.359Z,42.03
2023-02-22T01:52:01.475Z,42.92
2023-02-22T01:55:10.408Z,49.42
2023-02-22T01:58:18.028Z,44.90
2023-02-22T02:01:25.697Z,53.13
2023-02-22T02:04:30.131Z,45.05
2023-02-22T02:07:37.401Z,50.97
2023-02-22T02:10:43.749Z,57.70
2023-02-22T02:13:54.397Z,58.55
2023-02-22T02:17:00.797Z,63.05
2023-02-22T02:20:17.503Z,57.75
2023-02-22T02:23:46.572Z,65.30
2023-02-22T02:27:10.142Z,67.65
2023-02-22T02:30:46.517Z,62.20
2023-02-22T02:33:58.628Z,64.45
2023-02-22T02:37:08.501Z,67.10
2023-02-22T02:40:23.312Z,78.18
2023-02-22T02:43:31.550Z,80.97
2023-02-22T02:46:45.077Z,79.03
2023-02-22T02:49:56.556Z,83.75
2023-02-22T02:53:06.340Z,92.20
2023-02-22T02:56:10.189Z,82.13
2023-02-22T02:59:31.698Z,87.75
2023-02-22T03:02:52.914Z,89.13
2023-02-22T03:06:19.313Z,83.60
2023-02-22T03:09:37.423Z,93.25
2023-02-22T03:12:49.916Z,91.70
2023-02-22T03:15:58.388Z,99.47
2023-02-22T03:19:10.835Z,103.35
2023-02-22T03:22:24.258Z,98.00
2023-02-22T03:25:37.692Z,93.47
2023-02-22T03:28:44.554Z,99.25
2023-02-22T03:31:54.817Z,86.43
2023-02-22T03:35:06.001Z,100.38
2023-02-22T03:38:21.364Z,104.40
2023-02-22T03:41:27.845Z,101.43
2023-02-22T03:44:39.595Z,85.10
2023-02-22T03:47:49.665Z,92.95
2023-02-22T03:50:57.834Z,86.95
2023-02-22T03:54:04.145Z,97.93
2023-02-22T03:57:22.358Z,97.63
2023-02-22T04:00:33.871Z,94.80
2023-02-22T04:03:39.940Z,90.00
2023-02-22T04:06:44.033Z,92.70
2023-02-22T04:09:52.410Z,95.65
2023-02-22T04:12:56.686Z,87.95
2023-02-22T04:16:02.937Z,98.18
2023-02-22T04:19:07.674Z,102.88
2023-02-22T04:22:15.385Z,87.13
2023-02-22T04:28:26.938Z,98.10
2023-02-22T04:31:41.093Z,103.32
2023-02-22T04:34:47.115Z,104.97
2023-02-22T04:40:59.482Z,95.57
2023-02-22T04:44:04.674Z,105.40
2023-02-22T04:47:11.312Z,93.25
2023-02-22T04:53:21.838Z,94.13
2023-02-22T04:56:27.616Z,103.13
2023-02-22T04:59:33.803Z,107.07
2023-02-22T05:02:40.716Z,92.40
2023-02-22T05:05:46.918Z,98.32
2023-02-22T05:11:58.312Z,111.50
2023-02-22T05:15:02.124Z,102.65
2023-02-22T05:18:08.058Z,105.90
2023-02-22T05:24:18.829Z,99.82
2023-02-22T05:30:32.307Z,103.78
2023-02-22T05:33:36.250Z,98.82
2023-02-22T05:36:42.107Z,111.10
2023-02-22T05:39:46.148Z,109.50
2023-02-22T05:42:54.798Z,103.38
2023-02-22T05:45:58.792Z,107.13
2023-02-22T05:49:04.840Z,111.00
2023-02-22T05:55:17.124Z,114.45
2023-02-22T05:58:23.584Z,106.20
2023-02-22T06:01:29.846Z,119.53
2023-02-22T06:04:33.687Z,123.05
2023-02-22T06:07:39.504Z,111.53
2023-02-22T06:11:03.307Z,113.40
2023-02-22T06:14:11.078Z,106.85
2023-02-22T06:17:16.317Z,112.75
2023-02-22T06:20:24.313Z,118.95
2023-02-22T06:23:28.837Z,109.03
2023-02-22T06:26:35.512Z,113.72
2023-02-22T06:29:41.372Z,119.07
2023-02-22T06:32:47.179Z,120.85
2023-02-22T06:38:58.055Z,116.25
2023-02-22T06:42:02.191Z,124.82
2023-02-22T06:45:11.168Z,132.70
2023-02-22T06:48:15.463Z,124.70
2023-02-22T06:51:21.467Z,129.60
2023-02-22T06:54:26.559Z,128.77
2023-02-22T06:57:32.367Z,130.40
2023-02-22T07:00:38.261Z,145.65
2023-02-22T07:03:44.209Z,119.97
2023-02-22T07:09:54.248Z,135.55
2023-02-22T07:16:06.137Z,136.55
2023-02-22T07:19:09.984Z,153.35
2023-02-22T07:22:16.990Z,154.25
2023-02-22T07:25:21.244Z,158.35
2023-02-22T07:28:27.132Z,164.18
2023-02-22T07:34:43.361Z,160.10
2023-02-22T07:37:47.668Z,165.07
2023-02-22T07:40:53.479Z,171.57
2023-02-22T07:43:57.328Z,174.95
2023-02-22T07:47:05.140Z,177.30
2023-02-22T07:50:09.361Z,169.52
2023-02-22T07:53:19.480Z,169.55
2023-02-22T07:56:23.459Z,158.27
2023-02-22T07:59:29.258Z,155.90
2023-02-22T08:02:35.050Z,155.35
2023-02-22T08:05:42.446Z,167.07
2023-02-22T08:08:46.263Z,166.93
2023-02-22T08:11:52.085Z,142.18
2023-02-22T08:18:05.230Z,143.57
2023-02-22T08:21:09.135Z,135.52
2023-02-22T08:24:14.964Z,135.38
2023-02-22T08:27:18.800Z,145.02
2023-02-22T08:30:25.332Z,155.25
2023-02-22T08:33:31.206Z,134.65
2023-02-22T08:36:37.013Z,130.88
2023-02-22T08:39:40.811Z,133.98
2023-02-22T08:42:46.979Z,122.93
2023-02-22T08:45:52.144Z,129.43
2023-02-22T08:49:00.299Z,134.82
2023-02-22T08:52:04.529Z,120.15
2023-02-22T08:55:10.353Z,125.07
2023-02-22T08:58:14.263Z,107.80
2023-02-22T09:01:32.715Z,122.82
2023-02-22T09:04:39.053Z,103.47
2023-02-22T09:07:45.860Z,106.35
2023-02-22T09:10:52.100Z,106.32
2023-02-22T09:13:57.946Z,113.05
2023-02-22T09:17:04.019Z,112.35
2023-02-22T09:20:14.286Z,116.53
2023-02-22T09:23:21.613Z,111.95
2023-02-22T09:26:27.674Z,112.97
2023-02-22T09:32:38.540Z,111.93
2023-02-22T09:35:46.407Z,116.10
2023-02-22T09:38:55.751Z,111.93
2023-02-22T09:42:08.784Z,114.03
2023-02-22T09:45:21.657Z,97.03
2023-02-22T09:48:26.519Z,104.75
2023-02-22T09:51:40.610Z,95.65
2023-02-22T09:54:51.165Z,94.80
2023-02-22T09:58:00.900Z,83.78
2023-02-22T10:01:22.353Z,88.50
2023-02-22T10:04:41.918Z,90.88
2023-02-22T10:07:53.440Z,89.15
2023-02-22T10:11:08.650Z,81.85
2023-02-22T10:14:34.653Z,72.78
2023-02-22T10:17:48.732Z,78.68
2023-02-22T10:20:57.549Z,82.88
2023-02-22T10:24:15.662Z,83.65
2023-02-22T10:27:22.075Z,85.82
2023-02-22T10:30:34.355Z,76.85
2023-02-22T10:33:42.791Z,84.18
2023-02-22T10:36:52.045Z,77.93
2023-02-22T10:40:04.918Z,75.50
2023-02-22T10:43:13.314Z,65.93
2023-02-22T10:46:22.346Z,74.32
2023-02-22T10:49:34.260Z,76.15
2023-02-22T10:52:38.129Z,74.10
2023-02-22T10:56:12.099Z,79.90
2023-02-22T10:59:29.086Z,74.72
2023-02-22T11:02:37.466Z,71.00
2023-02-22T11:05:42.511Z,74.57
2023-02-22T11:08:51.497Z,72.97
2023-02-22T11:12:18.758Z,70.20
2023-02-22T11:15:30.674Z,72.32
2023-02-22T11:18:36.648Z,71.68
2023-02-22T11:21:42.803Z,69.68
2023-02-22T11:24:50.040Z,71.35
2023-02-22T11:28:09.741Z,73.45
2023-02-22T11:31:17.323Z,68.28
2023-02-22T11:34:33.688Z,73.75
2023-02-22T11:37:38.332Z,77.70
2023-02-22T11:40:44.876Z,72.15
2023-02-22T11:43:53.658Z,70.80
2023-02-22T11:47:06.293Z,69.68
2023-02-22T11:50:18.460Z,62.78
2023-02-22T11:53:33.164Z,66.85
2023-02-22T11:56:41.402Z,65.38
2023-02-22T12:00:06.579Z,64.57
2023-02-22T12:03:29.560Z,57.35
2023-02-22T12:06:47.413Z,59.85
2023-02-22T12:09:56.406Z,55.58
2023-02-22T12:13:16.471Z,65.50
2023-02-22T12:16:31.388Z,57.65
2023-02-22T12:19:40.451Z,65.25
2023-02-22T12:22:54.709Z,58.30
2023-02-22T12:26:04.701Z,60.78
2023-02-22T12:29:14.152Z,54.30
2023-02-22T12:32:34.202Z,58.85
2023-02-22T12:35:41.735Z,52.33
2023-02-22T12:38:54.182Z,55.10
2023-02-22T12:42:00.131Z,50.78
2023-02-22T12:45:16.225Z,55.42
2023-02-22T12:48:42.031Z,52.65
2023-02-22T12:51:53.891Z,55.53
2023-02-22T12:55:05.645Z,50.05
2023-02-22T12:58:24.602Z,54.05
2023-02-22T13:01:36.017Z,44.67
2023-02-22T13:04:43.904Z,58.67
2023-02-22T13:07:58.191Z,52.90
2023-02-22T13:11:14.918Z,49.83
2023-02-22T13:14:42.813Z,46.42
2023-02-22T13:18:01.749Z,43.70
2023-02-22T13:21:16.049Z,45.60
2023-02-22T13:24:26.261Z,49.20
2023-02-22T13:27:36.590Z,46.30
2023-02-22T13:30:50.691Z,49.42
2023-02-22T13:34:12.460Z,42.00
2023-02-22T13:37:41.709Z,43.55
2023-02-22T13:41:11.689Z,46.55
2023-02-22T13:44:59.138Z,38.97
2023-02-22T13:48:20.406Z,45.65
2023-02-22T13:51:50.389Z,43.80
2023-02-22T13:55:01.246Z,45.35
2023-02-22T13:58:09.548Z,45.33
2023-02-22T14:01:47.110Z,47.20
2023-02-22T14:04:52.977Z,39.60
2023-02-22T14:07:57.390Z,44.63
2023-02-22T14:11:05.334Z,54.67
2023-02-22T14:14:17.749Z,42.75
2023-02-22T14:17:30.119Z,42.70
2023-02-22T14:20:36.460Z,43.95
2023-02-22T14:23:43.424Z,38.63
2023-02-22T14:26:58.062Z,49.95
2023-02-22T14:30:05.019Z,45.20
2023-02-22T14:33:43.874Z,45.55
2023-02-22T14:36:55.990Z,39.63
2023-02-22T14:40:12.145Z,49.90
2023-02-22T14:43:22.289Z,46.90
2023-02-22T14:46:31.143Z,48.60
2023-02-22T14:49:41.900Z,47.90
2023-02-22T14:52:49.111Z,42.20
2023-02-22T14:56:01.745Z,45.67
2023-02-22T14:59:18.149Z,45.85
2023-02-22T15:02:25.405Z,43.60
2023-02-22T15:05:37.652Z,47.75
2023-02-22T15:11:53.420Z,35.78
2023-02-22T15:15:14.058Z,43.92
2023-02-22T15:18:24.917Z,45.53
2023-02-22T15:21:33.369Z,46.63
2023-02-22T15:24:39.716Z,43.17
2023-02-22T15:27:47.801Z,43.55
2023-02-22T15:30:51.753Z,37.88
2023-02-22T15:33:58.113Z,50.28
2023-02-22T15:37:24.347Z,45.90
2023-02-22T15:40:34.371Z,46.03
2023-02-22T15:43:39.971Z,42.15
2023-02-22T15:46:45.905Z,40.00
2023-02-22T15:53:27.643Z,38.03
2023-02-22T15:56:35.567Z,41.80
2023-02-22T15:59:48.273Z,36.72
2023-02-22T16:02:53.180Z,36.33
2023-02-22T16:06:00.706Z,47.65
2023-02-22T16:09:10.157Z,57.55
2023-02-22T16:12:28.985Z,50.55
2023-02-22T16:15:34.177Z,37.17
2023-02-22T16:18:40.809Z,36.97
2023-02-22T16:21:56.250Z,32.15
2023-02-22T16:25:27.538Z,38.15
2023-02-22T16:28:35.061Z,30.30
2023-02-22T16:31:41.960Z,36.88
2023-02-22T16:34:47.421Z,42.15
2023-02-22T16:37:56.732Z,38.90
2023-02-22T16:41:00.882Z,37.92
2023-02-22T16:44:09.818Z,35.78
2023-02-22T16:47:14.166Z,41.25
2023-02-22T16:50:21.225Z,37.22
2023-02-22T16:53:27.678Z,32.60
2023-02-22T16:56:34.870Z,34.08
2023-02-22T16:59:41.535Z,40.60
2023-02-22T17:02:47.595Z,33.88
2023-02-22T17:05:51.679Z,32.17
2023-02-22T17:08:57.525Z,35.88
2023-02-22T17:12:01.661Z,33.63
2023-02-22T17:15:12.037Z,34.42
2023-02-22T17:18:21.873Z,31.50
2023-02-22T17:21:27.711Z,33.70
2023-02-22T17:24:33.394Z,29.98
2023-02-22T17:27:39.205Z,33.28
2023-02-22T17:30:48.169Z,33.13
2023-02-22T17:34:02.256Z,31.67
2023-02-22T17:37:06.281Z,34.40
2023-02-22T17:40:14.035Z,36.63
2023-02-22T17:43:18.747Z,35.00
2023-02-22T17:46:26.744Z,30.85
2023-02-22T17:49:30.647Z,34.65
2023-02-22T17:52:36.554Z,31.95
2023-02-22T17:55:41.186Z,33.75
2023-02-22T17:58:48.995Z,33.70
2023-02-22T18:01:54.884Z,43.72
2023-02-22T18:05:00.738Z,42.17
2023-02-22T18:08:04.595Z,40.40
2023-02-22T18:11:10.433Z,43.63
2023-02-22T18:14:14.570Z,51.35
2023-02-22T18:17:22.657Z,48.08
2023-02-22T18:20:30.459Z,47.42
2023-02-22T18:23:36.287Z,48.55
2023-02-22T18:26:40.251Z,43.75
2023-02-22T18:29:46.128Z,44.78
2023-02-22T18:32:52.078Z,37.78
2023-02-22T18:35:59.021Z,52.53
2023-02-22T18:39:03.345Z,49.30
2023-02-22T18:42:10.776Z,41.42
2023-02-22T18:45:15.075Z,45.10
2023-02-22T18:48:22.903Z,39.20
2023-02-22T18:51:27.740Z,38.20
2023-02-22T18:54:33.525Z,38.47
2023-02-22T18:57:37.377Z,40.55
2023-02-22T19:00:43.270Z,40.50
2023-02-22T19:03:49.057Z,37.80
2023-02-22T19:06:56.948Z,37.38
2023-02-22T19:10:02.002Z,37.72
2023-02-22T19:13:10.138Z,35.03
2023-02-22T19:16:16.080Z,35.80
2023-02-22T19:19:26.576Z,33.63
2023-02-22T19:22:32.142Z,30.75
2023-02-22T19:25:41.860Z,40.25
2023-02-22T19:28:46.300Z,37.38
2023-02-22T19:31:53.062Z,34.78
2023-02-22T19:35:01.421Z,33.75
2023-02-22T19:38:07.301Z,37.67
2023-02-22T19:44:20.306Z,36.60
2023-02-22T19:50:31.726Z,37.08
2023-02-22T19:53:38.392Z,33.25
2023-02-22T19:56:44.361Z,31.58
2023-02-22T20:03:05.051Z,33.55
2023-02-22T20:06:11.283Z,31.67
2023-02-22T20:09:19.321Z,38.13
2023-02-22T20:12:23.144Z,38.70
2023-02-22T20:15:29.431Z,37.75
2023-02-22T20:18:33.445Z,33.40
2023-02-22T20:21:41.410Z,33.03
2023-02-22T20:24:46.894Z,39.20
2023-02-22T20:27:52.816Z,36.05
2023-02-22T20:30:56.888Z,32.45
2023-02-22T20:34:05.619Z,36.38
2023-02-22T20:37:11.481Z,36.88
2023-02-22T20:40:17.433Z,36.90
2023-02-22T20:46:30.863Z,42.10
2023-02-22T20:49:35.352Z,46.20
2023-02-22T20:52:44.406Z,41.50
2023-02-22T20:55:51.576Z,42.58
2023-02-22T20:58:57.712Z,43.35
2023-02-22T21:02:01.664Z,47.28
2023-02-22T21:05:07.660Z,41.58
2023-02-22T21:08:14.974Z,43.78
2023-02-22T21:11:21.712Z,46.50
2023-02-22T21:14:25.826Z,45.22
2023-02-22T21:17:31.774Z,56.13
2023-02-22T21:23:50.429Z,53.00
2023-02-22T21:26:55.138Z,52.90
2023-02-22T21:30:00.973Z,51.10
2023-02-22T21:33:06.117Z,51.28
2023-02-22T21:36:14.124Z,46.55
2023-02-22T21:39:20.253Z,49.33
2023-02-22T21:42:26.303Z,51.53
2023-02-22T21:48:36.141Z,52.70
2023-02-22T21:51:40.065Z,57.67
2023-02-22T21:54:47.877Z,55.20
2023-02-22T21:57:51.931Z,54.80
2023-02-22T22:00:58.814Z,58.85
2023-02-22T22:04:03.846Z,61.65
2023-02-22T22:07:09.713Z,58.30
2023-02-22T22:10:18.148Z,65.65
2023-02-22T22:13:24.892Z,54.92
2023-02-22T22:16:30.410Z,58.13
2023-02-22T22:19:39.970Z,66.40
2023-02-22T22:22:45.419Z,58.10
2023-02-22T22:25:53.204Z,58.38
2023-02-22T22:28:59.553Z,56.22
2023-02-22T22:32:06.019Z,58.00
2023-02-22T22:35:14.050Z,60.60
2023-02-22T22:38:20.096Z,56.53
2023-02-22T22:41:27.370Z,63.67
2023-02-22T22:44:41.274Z,62.33
2023-02-22T22:47:47.845Z,60.10
2023-02-22T22:51:01.940Z,57.80
2023-02-22T22:54:08.728Z,55.20
2023-02-22T22:57:16.673Z,58.92
2023-02-22T23:00:30.853Z,55.90
2023-02-22T23:03:37.736Z,59.20
2023-02-22T23:06:45.282Z,53.00
2023-02-22T23:09:51.146Z,52.75
2023-02-22T23:12:57.859Z,50.53
2023-02-22T23:16:03.815Z,53.88
2023-02-22T23:19:10.189Z,59.15
2023-02-22T23:22:14.679Z,58.95
2023-02-22T23:25:20.959Z,62.08
2023-02-22T23:28:26.900Z,54.45
2023-02-22T23:31:33.496Z,47.28
2023-02-22T23:34:40.637Z,62.40
2023-02-22T23:37:52.388Z,58.03
2023-02-22T23:40:58.022Z,57.75
2023-02-22T23:44:07.888Z,60.90
2023-02-22T23:47:11.796Z,62.33
2023-02-22T23:50:18.614Z,63.47
2023-02-22T23:53:25.322Z,70.18
2023-02-22T23:56:31.470Z,62.92
2023-02-22T23:59:39.734Z,56.33
